createdAt,value
2018-11-27T00:00:28.305Z,4.70
2018-11-27T00:02:58.786Z,4.70
2018-11-27T00:05:27.293Z,4.60
2018-11-27T00:07:55.623Z,4.60
2018-11-27T00:10:23.951Z,4.60
2018-11-27T00:12:52.428Z,4.60
2018-11-27T00:15:20.721Z,4.60
2018-11-27T00:17:48.990Z,4.60
2018-11-27T00:20:17.264Z,4.60
2018-11-27T00:22:45.695Z,4.70
2018-11-27T00:25:15.837Z,4.70
2018-11-27T00:27:44.173Z,4.70
2018-11-27T00:30:13.592Z,4.60
2018-11-27T00:32:41.917Z,4.70
2018-11-27T00:35:12.331Z,4.70
2018-11-27T00:37:40.758Z,4.60
2018-11-27T00:40:19.188Z,4.60
2018-11-27T00:42:47.521Z,4.60
2018-11-27T00:45:17.017Z,4.60
2018-11-27T00:47:46.272Z,4.60
2018-11-27T00:50:19.510Z,4.60
2018-11-27T00:52:47.971Z,4.70
2018-11-27T00:55:17.122Z,4.60
2018-11-27T00:57:46.336Z,4.60
2018-11-27T01:00:17.640Z,4.60
2018-11-27T01:02:46.095Z,4.70
2018-11-27T01:05:15.334Z,4.60
2018-11-27T01:07:43.737Z,4.50
2018-11-27T01:10:18.124Z,4.50
2018-11-27T01:12:46.498Z,4.60
2018-11-27T01:15:15.524Z,4.60
2018-11-27T01:18:00.575Z,4.60
2018-11-27T01:20:29.068Z,4.50
2018-11-27T01:22:57.393Z,4.60
2018-11-27T01:25:25.677Z,4.60
2018-11-27T01:27:54.043Z,4.60
2018-11-27T01:30:22.913Z,4.60
2018-11-27T01:32:51.397Z,4.70
2018-11-27T01:35:21.164Z,4.60
2018-11-27T01:37:50.520Z,4.60
2018-11-27T01:40:23.579Z,4.60
2018-11-27T01:42:53.795Z,4.60
2018-11-27T01:45:22.575Z,4.60
2018-11-27T01:47:51.126Z,4.60
2018-11-27T01:50:19.858Z,4.60
2018-11-27T01:52:48.426Z,4.60
2018-11-27T01:55:18.717Z,4.60
2018-11-27T01:57:47.244Z,4.60
2018-11-27T02:00:26.558Z,4.60
2018-11-27T02:02:55.497Z,4.60
2018-11-27T02:05:24.340Z,4.60
2018-11-27T02:07:52.697Z,4.60
2018-11-27T02:10:21.116Z,4.60
2018-11-27T02:12:50.318Z,4.60
2018-11-27T02:15:19.822Z,4.60
2018-11-27T02:17:48.157Z,4.60
2018-11-27T02:20:17.065Z,4.60
2018-11-27T02:22:45.520Z,4.60
2018-11-27T02:25:18.087Z,4.60
2018-11-27T02:27:46.444Z,4.60
2018-11-27T02:30:16.535Z,4.60
2018-11-27T02:32:44.864Z,4.60
2018-11-27T02:35:17.215Z,4.50
2018-11-27T02:37:45.942Z,4.60
2018-11-27T02:40:15.434Z,4.50
2018-11-27T02:42:43.884Z,4.60
2018-11-27T02:45:14.949Z,4.50
2018-11-27T02:47:44.091Z,4.50
2018-11-27T02:50:14.718Z,4.60
2018-11-27T02:52:43.200Z,4.60
2018-11-27T02:55:14.386Z,4.50
2018-11-27T02:57:42.856Z,4.60
2018-11-27T03:00:13.098Z,4.50
2018-11-27T03:02:41.556Z,4.60
2018-11-27T03:05:18.155Z,4.50
2018-11-27T03:07:46.495Z,4.60
2018-11-27T03:10:15.581Z,4.50
2018-11-27T03:12:43.861Z,4.60
2018-11-27T03:15:15.285Z,4.60
2018-11-27T03:17:43.625Z,4.60
2018-11-27T03:20:12.927Z,4.60
2018-11-27T03:22:41.276Z,4.60
2018-11-27T03:25:12.648Z,4.60
2018-11-27T03:27:40.946Z,4.60
2018-11-27T03:30:14.429Z,4.60
2018-11-27T03:32:42.869Z,4.70
2018-11-27T03:35:13.180Z,4.60
2018-11-27T03:37:41.575Z,4.50
2018-11-27T03:40:11.328Z,4.60
2018-11-27T03:42:39.680Z,4.60
2018-11-27T03:45:09.540Z,4.50
2018-11-27T03:47:37.963Z,4.60
2018-11-27T03:50:12.239Z,4.60
2018-11-27T03:52:40.738Z,4.60
2018-11-27T03:55:10.004Z,4.70
2018-11-27T03:57:38.403Z,4.60
2018-11-27T04:00:12.146Z,4.70
2018-11-27T04:02:40.583Z,4.60
2018-11-27T04:05:09.755Z,4.60
2018-11-27T04:07:38.209Z,4.60
2018-11-27T04:10:10.011Z,4.60
2018-11-27T04:12:38.491Z,4.60
2018-11-27T04:15:07.078Z,4.60
2018-11-27T04:17:35.476Z,4.60
2018-11-27T04:20:03.963Z,4.60
2018-11-27T04:22:32.622Z,4.60
2018-11-27T04:25:00.970Z,4.60
2018-11-27T04:27:29.299Z,4.60
2018-11-27T04:29:57.660Z,4.60
2018-11-27T04:32:26.032Z,4.60
2018-11-27T04:34:54.491Z,4.50
2018-11-27T04:37:22.839Z,4.50
2018-11-27T04:39:51.207Z,4.60
2018-11-27T04:42:19.521Z,4.60
2018-11-27T04:44:47.904Z,4.60
2018-11-27T04:47:16.533Z,4.60
2018-11-27T04:49:45.211Z,4.60
2018-11-27T04:52:13.742Z,4.60
2018-11-27T04:54:42.093Z,4.70
2018-11-27T04:57:10.394Z,4.70
2018-11-27T04:59:38.856Z,4.70
2018-11-27T05:02:07.140Z,4.70
2018-11-27T05:04:35.472Z,4.60
2018-11-27T05:07:04.196Z,4.60
2018-11-27T05:09:32.682Z,4.60
2018-11-27T05:12:01.046Z,4.60
2018-11-27T05:14:29.330Z,4.70
2018-11-27T05:16:57.738Z,4.70
2018-11-27T05:19:26.063Z,4.60
2018-11-27T05:21:54.529Z,4.70
2018-11-27T05:24:22.939Z,4.70
2018-11-27T05:26:51.390Z,4.70
2018-11-27T05:29:19.909Z,4.70
2018-11-27T05:31:48.340Z,4.70
2018-11-27T05:34:16.679Z,4.70
2018-11-27T05:36:45.071Z,4.60
2018-11-27T05:39:13.489Z,4.70
2018-11-27T05:41:41.822Z,4.70
2018-11-27T05:44:10.158Z,4.70
2018-11-27T05:46:38.474Z,4.70
2018-11-27T05:49:07.019Z,4.70
2018-11-27T05:51:35.536Z,4.70
2018-11-27T05:54:03.854Z,4.60
2018-11-27T05:56:32.192Z,4.70
2018-11-27T05:59:00.665Z,4.70
2018-11-27T06:01:29.188Z,4.80
2018-11-27T06:03:57.668Z,4.80
2018-11-27T06:09:04.462Z,4.80
2018-11-27T06:11:32.903Z,4.80
2018-11-27T06:14:01.526Z,4.80
2018-11-27T06:16:29.979Z,4.70
2018-11-27T06:18:58.341Z,4.70
2018-11-27T06:21:26.710Z,4.70
2018-11-27T06:23:55.034Z,4.60
2018-11-27T06:26:23.530Z,4.70
2018-11-27T06:28:52.008Z,4.80
2018-11-27T06:31:20.435Z,4.70
2018-11-27T06:33:48.752Z,4.70
2018-11-27T06:36:17.076Z,4.80
2018-11-27T06:38:45.522Z,4.80
2018-11-27T06:41:13.879Z,4.80
2018-11-27T06:43:42.344Z,4.80
2018-11-27T06:46:10.689Z,4.80
2018-11-27T06:48:39.079Z,4.80
2018-11-27T06:51:07.704Z,4.80
2018-11-27T06:53:36.317Z,4.80
2018-11-27T06:56:04.785Z,4.80
2018-11-27T06:58:33.130Z,4.80
2018-11-27T07:01:01.482Z,4.80
2018-11-27T07:03:29.821Z,4.80
2018-11-27T07:05:58.134Z,4.80
2018-11-27T07:08:27.418Z,4.80
2018-11-27T07:10:54.795Z,4.80
2018-11-27T07:13:24.436Z,4.80
2018-11-27T07:15:53.141Z,4.80
2018-11-27T07:18:21.472Z,4.80
2018-11-27T07:20:49.759Z,4.80
2018-11-27T07:23:18.122Z,4.80
2018-11-27T07:25:46.461Z,4.80
2018-11-27T07:28:14.777Z,4.80
2018-11-27T07:30:43.235Z,4.80
2018-11-27T07:33:12.073Z,4.80
2018-11-27T07:35:40.588Z,4.80
2018-11-27T07:38:08.926Z,4.80
2018-11-27T07:40:37.419Z,4.90
2018-11-27T07:43:08.895Z,4.80
2018-11-27T07:45:37.396Z,4.80
2018-11-27T07:48:06.823Z,4.90
2018-11-27T07:50:35.263Z,4.80
2018-11-27T07:53:03.743Z,4.80
2018-11-27T07:55:32.169Z,4.80
2018-11-27T07:58:00.715Z,4.80
2018-11-27T08:00:29.223Z,4.80
2018-11-27T08:02:58.737Z,4.80
2018-11-27T08:05:42.114Z,4.90
2018-11-27T08:08:14.077Z,4.90
2018-11-27T08:10:43.386Z,5.00
2018-11-27T08:13:11.826Z,4.90
2018-11-27T08:15:44.449Z,4.90
2018-11-27T08:18:13.054Z,4.90
2018-11-27T08:20:41.346Z,4.90
2018-11-27T08:23:10.714Z,4.90
2018-11-27T08:25:39.009Z,4.90
2018-11-27T08:28:07.678Z,4.90
2018-11-27T08:30:35.964Z,4.90
2018-11-27T08:33:04.266Z,5.00
2018-11-27T08:35:32.616Z,5.00
2018-11-27T08:38:01.521Z,5.00
2018-11-27T08:40:31.928Z,5.00
2018-11-27T08:43:00.317Z,5.00
2018-11-27T08:45:28.585Z,5.00
2018-11-27T08:47:57.066Z,5.00
2018-11-27T08:50:26.613Z,5.00
2018-11-27T08:52:57.106Z,5.00
2018-11-27T08:55:28.538Z,4.90
2018-11-27T08:57:57.075Z,4.90
2018-11-27T09:00:26.203Z,4.90
2018-11-27T09:02:54.753Z,4.90
2018-11-27T09:05:23.208Z,4.90
2018-11-27T09:07:51.506Z,4.90
2018-11-27T09:10:22.948Z,4.80
2018-11-27T09:12:51.238Z,4.80
2018-11-27T09:15:21.470Z,4.90
2018-11-27T09:18:00.155Z,4.90
2018-11-27T09:20:28.465Z,4.90
2018-11-27T09:22:56.839Z,4.90
2018-11-27T09:25:25.340Z,4.90
2018-11-27T09:27:53.735Z,4.90
2018-11-27T09:30:24.224Z,4.80
2018-11-27T09:32:52.675Z,4.90
2018-11-27T09:35:21.034Z,4.90
2018-11-27T09:37:49.470Z,4.90
2018-11-27T09:40:18.937Z,5.00
2018-11-27T09:42:47.290Z,5.00
2018-11-27T09:45:20.742Z,5.10
2018-11-27T09:47:50.334Z,5.10
2018-11-27T09:50:18.746Z,5.10
2018-11-27T09:52:47.069Z,5.20
2018-11-27T09:55:17.319Z,5.10
2018-11-27T09:57:45.677Z,5.20
2018-11-27T10:00:18.143Z,5.30
2018-11-27T10:02:46.506Z,5.20
2018-11-27T10:05:15.183Z,5.20
2018-11-27T10:07:43.443Z,5.30
2018-11-27T10:10:13.898Z,5.30
2018-11-27T10:12:42.176Z,5.30
2018-11-27T10:15:15.520Z,5.20
2018-11-27T10:17:44.366Z,5.20
2018-11-27T10:20:15.190Z,5.20
2018-11-27T10:22:43.354Z,5.20
2018-11-27T10:25:12.006Z,5.20
2018-11-27T10:27:40.492Z,5.20
2018-11-27T10:30:14.039Z,5.20
2018-11-27T10:32:43.102Z,5.20
2018-11-27T10:35:25.417Z,5.20
2018-11-27T10:37:53.745Z,5.20
2018-11-27T10:40:22.214Z,5.20
2018-11-27T10:42:50.929Z,5.10
2018-11-27T10:45:20.575Z,5.10
2018-11-27T10:47:52.758Z,5.20
2018-11-27T10:50:21.295Z,5.30
2018-11-27T10:52:50.638Z,5.20
2018-11-27T10:55:19.607Z,5.20
2018-11-27T10:57:47.937Z,5.20
2018-11-27T11:00:25.558Z,5.20
2018-11-27T11:02:59.314Z,5.20
2018-11-27T11:05:29.697Z,5.20
2018-11-27T11:07:58.011Z,5.30
2018-11-27T11:10:26.345Z,5.30
2018-11-27T11:12:54.727Z,5.30
2018-11-27T11:15:23.245Z,5.30
2018-11-27T11:17:51.547Z,5.30
2018-11-27T11:20:24.630Z,5.40
2018-11-27T11:22:52.939Z,5.40
2018-11-27T11:25:22.477Z,5.40
2018-11-27T11:27:55.071Z,5.40
2018-11-27T11:30:23.935Z,5.40
2018-11-27T11:32:52.150Z,5.40
2018-11-27T11:35:20.516Z,5.40
2018-11-27T11:37:49.469Z,5.40
2018-11-27T11:40:21.064Z,5.40
2018-11-27T11:42:50.962Z,5.50
2018-11-27T11:45:19.297Z,5.50
2018-11-27T11:47:47.663Z,5.60
2018-11-27T11:50:19.793Z,5.70
2018-11-27T11:52:49.573Z,5.70
2018-11-27T11:55:18.553Z,5.70
2018-11-27T11:57:46.902Z,5.80
2018-11-27T12:00:18.403Z,5.90
2018-11-27T12:02:46.712Z,5.80
2018-11-27T12:05:15.114Z,5.80
2018-11-27T12:07:43.441Z,5.70
2018-11-27T12:10:15.603Z,5.70
2018-11-27T12:12:45.083Z,5.70
2018-11-27T12:15:14.383Z,5.60
2018-11-27T12:17:43.384Z,5.70
2018-11-27T12:20:13.617Z,5.60
2018-11-27T12:22:43.158Z,5.60
2018-11-27T12:25:12.563Z,5.60
2018-11-27T12:27:40.887Z,5.70
2018-11-27T12:30:13.183Z,5.70
2018-11-27T12:32:41.466Z,5.70
2018-11-27T12:35:10.763Z,5.70
2018-11-27T12:37:39.100Z,5.70
2018-11-27T12:40:29.716Z,5.60
2018-11-27T12:42:58.456Z,5.70
2018-11-27T12:45:29.418Z,5.60
2018-11-27T12:47:58.803Z,5.60
2018-11-27T12:50:31.201Z,5.60
2018-11-27T12:53:00.770Z,5.50
2018-11-27T12:55:30.410Z,5.50
2018-11-27T12:57:58.962Z,5.60
2018-11-27T13:00:27.450Z,5.60
2018-11-27T13:02:55.818Z,5.70
2018-11-27T13:05:25.569Z,5.70
2018-11-27T13:08:00.301Z,5.70
2018-11-27T13:10:28.639Z,5.70
2018-11-27T13:12:57.025Z,5.60
2018-11-27T13:15:25.449Z,5.60
2018-11-27T13:17:54.037Z,5.60
2018-11-27T13:20:22.375Z,5.60
2018-11-27T13:22:53.283Z,5.70
2018-11-27T13:25:24.294Z,5.70
2018-11-27T13:27:53.817Z,5.80
2018-11-27T13:30:27.343Z,5.90
2018-11-27T13:32:59.493Z,5.80
2018-11-27T13:35:27.847Z,5.80
2018-11-27T13:37:56.259Z,5.80
2018-11-27T13:40:24.730Z,5.80
2018-11-27T13:42:53.171Z,5.70
2018-11-27T13:45:21.561Z,5.80
2018-11-27T13:47:50.128Z,5.70
2018-11-27T13:50:18.448Z,5.70
2018-11-27T13:52:46.813Z,5.60
2018-11-27T13:55:22.052Z,5.70
2018-11-27T13:57:50.422Z,5.70
2018-11-27T14:00:19.661Z,5.70
2018-11-27T14:02:52.519Z,5.70
2018-11-27T14:05:23.387Z,5.70
2018-11-27T14:07:51.814Z,5.70
2018-11-27T14:10:20.661Z,5.60
2018-11-27T14:12:49.002Z,5.60
2018-11-27T14:15:19.312Z,5.50
2018-11-27T14:17:47.609Z,5.60
2018-11-27T14:20:16.071Z,5.60
2018-11-27T14:22:45.400Z,5.50
2018-11-27T14:25:14.169Z,5.50
2018-11-27T14:27:42.799Z,5.50
2018-11-27T14:30:16.928Z,5.40
2018-11-27T14:32:52.051Z,5.40
2018-11-27T14:35:21.365Z,5.40
2018-11-27T14:37:50.907Z,5.40
2018-11-27T14:40:20.481Z,5.40
2018-11-27T14:42:48.873Z,5.40
2018-11-27T14:45:20.221Z,5.40
2018-11-27T14:47:50.475Z,5.40
2018-11-27T14:50:18.914Z,5.30
2018-11-27T14:52:47.296Z,5.40
2018-11-27T14:55:18.837Z,5.30
2018-11-27T14:57:47.290Z,5.40
2018-11-27T15:00:17.733Z,5.30
2018-11-27T15:02:46.142Z,5.30
2018-11-27T15:05:19.838Z,5.20
2018-11-27T15:07:48.829Z,5.30
2018-11-27T15:10:17.189Z,5.30
2018-11-27T15:12:45.585Z,5.30
2018-11-27T15:15:14.137Z,5.20
2018-11-27T15:17:42.607Z,5.30
2018-11-27T15:20:13.286Z,5.30
2018-11-27T15:22:41.592Z,5.20
2018-11-27T15:25:10.164Z,5.10
2018-11-27T15:27:38.566Z,5.00
2018-11-27T15:30:10.744Z,5.10
2018-11-27T15:32:39.022Z,5.00
2018-11-27T15:35:07.453Z,5.00
2018-11-27T15:37:35.816Z,5.00
2018-11-27T15:40:04.314Z,5.00
2018-11-27T15:42:32.594Z,5.00
2018-11-27T15:45:01.003Z,5.00
2018-11-27T15:47:29.715Z,5.00
2018-11-27T15:49:58.096Z,5.00
2018-11-27T15:52:26.522Z,4.90
2018-11-27T15:54:55.196Z,4.90
2018-11-27T15:57:23.541Z,4.80
2018-11-27T15:59:51.934Z,4.80
2018-11-27T16:02:20.977Z,4.80
2018-11-27T16:04:49.788Z,4.70
2018-11-27T16:07:18.395Z,4.70
2018-11-27T16:09:46.846Z,4.60
2018-11-27T16:12:15.134Z,4.50
2018-11-27T16:14:43.529Z,4.60
2018-11-27T16:17:11.888Z,4.60
2018-11-27T16:19:40.449Z,4.60
2018-11-27T16:22:08.955Z,4.60
2018-11-27T16:24:37.421Z,4.50
2018-11-27T16:27:06.149Z,4.50
2018-11-27T16:29:34.752Z,4.50
2018-11-27T16:32:03.595Z,4.40
2018-11-27T16:34:32.211Z,4.30
2018-11-27T16:37:01.011Z,4.20
2018-11-27T16:39:29.692Z,4.20
2018-11-27T16:41:57.978Z,4.30
2018-11-27T16:44:26.332Z,4.30
2018-11-27T16:46:54.755Z,4.40
2018-11-27T16:49:23.167Z,4.40
2018-11-27T16:51:51.575Z,4.50
2018-11-27T16:54:20.043Z,4.40
2018-11-27T16:56:48.347Z,4.40
2018-11-27T16:59:16.667Z,4.40
2018-11-27T17:01:44.950Z,4.40
2018-11-27T17:04:13.296Z,4.40
2018-11-27T17:06:41.726Z,4.40
2018-11-27T17:09:10.835Z,4.40
2018-11-27T17:11:39.194Z,4.40
2018-11-27T17:14:07.965Z,4.50
2018-11-27T17:16:36.292Z,4.50
2018-11-27T17:19:04.643Z,4.40
2018-11-27T17:21:32.970Z,4.30
2018-11-27T17:24:01.331Z,4.40
2018-11-27T17:26:29.695Z,4.50
2018-11-27T17:28:58.148Z,4.40
2018-11-27T17:31:26.491Z,4.40
2018-11-27T17:34:06.601Z,4.40
2018-11-27T17:36:35.107Z,4.50
2018-11-27T17:39:03.931Z,4.40
2018-11-27T17:41:32.397Z,4.40
2018-11-27T17:44:00.775Z,4.40
2018-11-27T17:46:29.211Z,4.40
2018-11-27T17:48:57.808Z,4.30
2018-11-27T17:51:26.105Z,4.30
2018-11-27T17:53:54.433Z,4.30
2018-11-27T17:56:22.828Z,4.20
2018-11-27T17:58:51.179Z,4.10
2018-11-27T18:01:19.545Z,4.10
2018-11-27T18:03:47.953Z,4.10
2018-11-27T18:06:16.369Z,4.20
2018-11-27T18:08:44.736Z,4.20
2018-11-27T18:11:13.045Z,4.20
2018-11-27T18:13:41.323Z,4.20
2018-11-27T18:16:09.606Z,4.30
2018-11-27T18:18:37.863Z,4.30
2018-11-27T18:21:06.387Z,4.20
2018-11-27T18:23:34.925Z,4.30
2018-11-27T18:26:03.238Z,4.20
2018-11-27T18:28:31.593Z,4.10
2018-11-27T18:30:59.916Z,4.20
2018-11-27T18:33:28.283Z,4.20
2018-11-27T18:35:56.690Z,4.10
2018-11-27T18:38:25.196Z,4.10
2018-11-27T18:40:53.682Z,4.10
2018-11-27T18:43:22.057Z,4.00
2018-11-27T18:45:50.396Z,4.10
2018-11-27T18:48:18.708Z,4.00
2018-11-27T18:50:47.002Z,4.00
2018-11-27T18:53:15.278Z,3.90
2018-11-27T18:55:43.584Z,3.80
2018-11-27T18:58:11.881Z,3.70
2018-11-27T19:00:40.199Z,3.60
2018-11-27T19:03:08.516Z,3.50
2018-11-27T19:05:36.868Z,3.50
2018-11-27T19:08:05.364Z,3.40
2018-11-27T19:10:34.117Z,3.30
2018-11-27T19:13:02.911Z,3.20
2018-11-27T19:15:33.781Z,3.30
2018-11-27T19:18:37.634Z,3.20
2018-11-27T19:21:06.547Z,3.30
2018-11-27T19:23:34.903Z,3.00
2018-11-27T19:26:03.279Z,2.90
2018-11-27T19:28:31.722Z,2.70
2018-11-27T19:31:00.047Z,2.60
2018-11-27T19:33:28.422Z,2.60
2018-11-27T19:35:56.805Z,2.60
2018-11-27T19:38:25.137Z,2.70
2018-11-27T19:40:53.540Z,2.60
2018-11-27T19:43:21.953Z,2.50
2018-11-27T19:45:50.359Z,2.50
2018-11-27T19:48:18.697Z,2.40
2018-11-27T19:50:47.020Z,2.30
2018-11-27T19:53:17.018Z,2.30
2018-11-27T19:55:45.339Z,2.30
2018-11-27T19:58:13.733Z,2.20
2018-11-27T20:00:42.367Z,2.20
2018-11-27T20:03:11.794Z,2.20
2018-11-27T20:05:40.400Z,2.10
2018-11-27T20:08:11.079Z,2.10
2018-11-27T20:10:39.595Z,2.10
2018-11-27T20:13:08.145Z,2.00
2018-11-27T20:15:37.101Z,2.00
2018-11-27T20:18:05.521Z,1.90
2018-11-27T20:20:33.951Z,1.90
2018-11-27T20:23:02.333Z,1.90
2018-11-27T20:25:30.742Z,1.80
2018-11-27T20:27:59.092Z,1.80
2018-11-27T20:30:28.396Z,1.80
2018-11-27T20:32:57.798Z,1.70
2018-11-27T20:35:26.617Z,1.70
2018-11-27T20:37:55.339Z,1.60
2018-11-27T20:40:23.909Z,1.60
2018-11-27T20:42:52.236Z,1.60
2018-11-27T20:45:21.845Z,1.60
2018-11-27T20:48:06.260Z,1.60
2018-11-27T20:50:34.565Z,1.50
2018-11-27T20:53:02.945Z,1.40
2018-11-27T20:55:31.282Z,1.40
2018-11-27T20:57:59.902Z,1.40
2018-11-27T21:00:30.719Z,1.40
2018-11-27T21:03:00.204Z,1.40
2018-11-27T21:05:28.513Z,1.30
2018-11-27T21:07:57.006Z,1.40
2018-11-27T21:10:25.430Z,1.40
2018-11-27T21:12:53.891Z,1.40
2018-11-27T21:15:22.319Z,1.40
2018-11-27T21:17:50.763Z,1.40
2018-11-27T21:20:19.679Z,1.30
2018-11-27T21:22:47.803Z,1.30
2018-11-27T21:25:17.193Z,1.30
2018-11-27T21:28:22.418Z,1.30
2018-11-27T21:30:51.911Z,1.30
2018-11-27T21:33:20.370Z,1.30
2018-11-27T21:35:48.697Z,1.30
2018-11-27T21:38:17.061Z,1.20
2018-11-27T21:40:45.378Z,1.20
2018-11-27T21:43:13.790Z,1.20
2018-11-27T21:45:42.111Z,1.20
2018-11-27T21:48:10.465Z,1.10
2018-11-27T21:50:40.363Z,1.10
2018-11-27T21:53:08.704Z,1.10
2018-11-27T21:55:37.622Z,1.00
2018-11-27T21:58:06.498Z,0.90
2018-11-27T22:00:34.815Z,0.90
2018-11-27T22:03:03.400Z,0.90
2018-11-27T22:05:31.836Z,1.00
2018-11-27T22:08:00.217Z,1.00
2018-11-27T22:10:28.671Z,0.90
2018-11-27T22:12:57.902Z,0.90
2018-11-27T22:15:42.552Z,0.90
2018-11-27T22:18:11.659Z,0.80
2018-11-27T22:20:39.989Z,0.80
2018-11-27T22:23:09.048Z,0.80
2018-11-27T22:25:37.554Z,0.70
2018-11-27T22:28:06.992Z,0.70
2018-11-27T22:30:35.378Z,0.70
2018-11-27T22:33:04.570Z,0.70
2018-11-27T22:35:32.890Z,0.70
2018-11-27T22:38:01.303Z,0.60
2018-11-27T22:40:29.770Z,0.60
2018-11-27T22:42:58.206Z,0.60
2018-11-27T22:45:29.593Z,0.60
2018-11-27T22:47:57.965Z,0.60
2018-11-27T22:50:26.957Z,0.50
2018-11-27T22:52:55.273Z,0.50
2018-11-27T22:55:23.612Z,0.50
2018-11-27T22:57:52.007Z,0.50
2018-11-27T23:00:29.178Z,0.50
2018-11-27T23:07:27.362Z,0.50
2018-11-27T23:09:55.639Z,0.50
2018-11-27T23:12:24.033Z,0.50
2018-11-27T23:14:52.325Z,0.40
2018-11-27T23:17:20.718Z,0.50
2018-11-27T23:19:48.979Z,0.40
2018-11-27T23:22:17.304Z,0.40
2018-11-27T23:24:45.799Z,0.40
2018-11-27T23:27:14.100Z,0.40
2018-11-27T23:29:42.629Z,0.40
2018-11-27T23:32:10.937Z,0.30
2018-11-27T23:34:39.316Z,0.20
2018-11-27T23:37:07.690Z,0.30
2018-11-27T23:39:35.999Z,0.30
2018-11-27T23:42:04.334Z,0.30
2018-11-27T23:44:32.638Z,0.30
2018-11-27T23:47:00.930Z,0.40
2018-11-27T23:49:29.200Z,0.30
2018-11-27T23:51:57.640Z,0.20
2018-11-27T23:54:26.027Z,0.20
2018-11-27T23:56:54.350Z,0.20
2018-11-27T23:59:22.681Z,0.20
